Terminal Aerodrome Forecast
Issued by NWS

Home | Current Version | Previous Version | Text Only | Print | Product List | Glossary On
Versions: 1 2 3 4 5 6 7 8 9 10 11 12 13 14 15 16 17
000
FTUS44 KLZK 242330
TAFHRO
TAF
KHRO 242330Z 2500/2524 15008KT P6SM SCT045
     FM250100 14004KT P6SM FEW250
     FM250800 14005KT P6SM SCT040 SCT100 BKN250
     FM251500 17007G15KT P6SM BKN100
     FM252200 24007KT P6SM OVC050=

USA.gov is the U.S. government's official web portal to all federal, state and local government web resources and services.